createdAt,value
2022-10-22T00:01:49.688Z,-11019.53
2022-10-22T00:04:57.256Z,-11022.62
2022-10-22T00:08:03.459Z,-11038.88
2022-10-22T00:11:16.482Z,-11032.72
2022-10-22T00:14:22.887Z,-11031.16
2022-10-22T00:17:29.061Z,-11009.00
2022-10-22T00:20:35.529Z,-11018.13
2022-10-22T00:23:42.943Z,-11010.00
2022-10-22T00:26:50.390Z,-11010.84
2022-10-22T00:29:56.473Z,-11012.53
2022-10-22T00:33:02.567Z,-11013.94
2022-10-22T00:36:10.265Z,-11013.38
2022-10-22T00:39:17.300Z,-11025.28
2022-10-22T00:42:27.099Z,-11001.31
2022-10-22T00:45:33.307Z,-11009.16
2022-10-22T00:48:39.496Z,-11025.56
2022-10-22T00:51:45.727Z,-11025.16
2022-10-22T00:54:53.149Z,-11023.75
2022-10-22T00:58:02.710Z,-11006.34
2022-10-22T01:01:10.605Z,-10995.41
2022-10-22T01:04:16.808Z,-11001.16
2022-10-22T01:07:25.675Z,-11021.91
2022-10-22T01:10:44.908Z,-11020.66
2022-10-22T01:13:59.372Z,-11016.16
2022-10-22T01:17:09.924Z,-11007.06
2022-10-22T01:20:28.791Z,-11015.75
2022-10-22T01:24:06.459Z,-11016.16
2022-10-22T01:27:24.122Z,-11006.34
2022-10-22T01:30:32.008Z,-10988.53
2022-10-22T01:33:39.412Z,-10977.47
2022-10-22T01:36:47.025Z,-10986.59
2022-10-22T01:39:55.527Z,-10992.91
2022-10-22T01:43:05.096Z,-10995.69
2022-10-22T01:46:14.711Z,-10995.69
2022-10-22T01:49:34.699Z,-11016.44
2022-10-22T01:52:57.395Z,-11015.88
2022-10-22T01:56:18.408Z,-11000.88
2022-10-22T01:59:34.476Z,-10978.31
2022-10-22T02:02:49.687Z,-10977.91
2022-10-22T02:06:00.851Z,-10977.19
2022-10-22T02:09:09.062Z,-10977.19
2022-10-22T02:12:16.742Z,-11001.03
2022-10-22T02:15:25.096Z,-10998.50
2022-10-22T02:18:37.496Z,-11007.75
2022-10-22T02:21:46.621Z,-10992.91
2022-10-22T02:24:53.412Z,-10998.78
2022-10-22T02:28:06.935Z,-10981.81
2022-10-22T02:31:18.147Z,-10994.44
2022-10-22T02:34:31.555Z,-11001.59
2022-10-22T02:37:39.518Z,-11017.84
2022-10-22T02:40:46.371Z,-11015.59
2022-10-22T02:43:56.007Z,-11021.50
2022-10-22T02:47:02.279Z,-11015.75
2022-10-22T02:50:10.678Z,-11014.19
2022-10-22T02:53:19.667Z,-11024.59
2022-10-22T02:56:25.985Z,-11019.53
2022-10-22T02:59:32.452Z,-10997.53
2022-10-22T03:02:39.022Z,-11003.25
2022-10-22T03:05:46.782Z,-10975.22
2022-10-22T03:08:52.812Z,-10986.44
2022-10-22T03:11:59.102Z,-10972.72
2022-10-22T03:15:06.269Z,-10972.00
2022-10-22T03:18:12.298Z,-10980.13
2022-10-22T03:21:27.552Z,-10984.47
2022-10-22T03:24:44.251Z,-11002.97
2022-10-22T03:27:51.716Z,-10994.44
2022-10-22T03:30:57.868Z,-11002.00
2022-10-22T03:34:04.228Z,-11014.19
2022-10-22T03:37:12.440Z,-11008.19
2022-10-22T03:40:19.005Z,-11001.03
2022-10-22T03:43:24.863Z,-10991.78
2022-10-22T03:46:30.895Z,-10991.06
2022-10-22T03:49:37.159Z,-10996.41
2022-10-22T03:52:44.722Z,-10999.06
2022-10-22T03:55:50.818Z,-11006.22
2022-10-22T03:58:58.623Z,-11009.44
2022-10-22T04:02:05.254Z,-11003.97
2022-10-22T04:05:11.574Z,-11008.88
2022-10-22T04:08:19.356Z,-11014.19
2022-10-22T04:11:25.389Z,-11003.41
2022-10-22T04:14:31.724Z,-11013.66
2022-10-22T04:17:38.612Z,-11001.88
2022-10-22T04:20:44.992Z,-10989.25
2022-10-22T04:23:54.479Z,-10987.56
2022-10-22T04:27:00.770Z,-10997.66
2022-10-22T04:30:08.205Z,-10986.31
2022-10-22T04:33:14.176Z,-10981.41
2022-10-22T04:36:20.894Z,-10971.44
2022-10-22T04:39:28.606Z,-10964.16
2022-10-22T04:42:34.740Z,-10975.09
2022-10-22T04:45:40.896Z,-10977.63
2022-10-22T04:48:48.012Z,-10975.78
2022-10-22T04:51:53.903Z,-10972.56
2022-10-22T04:55:01.334Z,-10981.81
2022-10-22T04:58:07.363Z,-10992.91
2022-10-22T05:01:15.052Z,-10977.75
2022-10-22T05:04:21.283Z,-10980.00
2022-10-22T05:07:27.464Z,-10991.91
2022-10-22T05:10:35.228Z,-11000.75
2022-10-22T05:13:41.565Z,-11012.25
2022-10-22T05:16:49.127Z,-11017.00
2022-10-22T05:19:55.687Z,-11023.88
2022-10-22T05:23:01.894Z,-11025.44
2022-10-22T05:26:11.282Z,-11030.75
2022-10-22T05:29:17.593Z,-11022.91
2022-10-22T05:32:24.324Z,-10998.50
2022-10-22T05:35:30.614Z,-11008.59
2022-10-22T05:38:37.583Z,-11019.53
2022-10-22T05:41:45.127Z,-11036.22
2022-10-22T05:44:51.315Z,-11036.38
2022-10-22T05:47:57.506Z,-11048.44
2022-10-22T05:51:05.683Z,-11050.97
2022-10-22T05:54:18.405Z,-11061.34
2022-10-22T05:57:25.810Z,-11037.63
2022-10-22T06:00:31.882Z,-11038.34
2022-10-22T06:03:38.119Z,-11043.38
2022-10-22T06:06:46.314Z,-11037.22
2022-10-22T06:09:53.906Z,-11027.37
2022-10-22T06:13:03.461Z,-11037.50
2022-10-22T06:16:09.652Z,-11042.69
2022-10-22T06:19:18.017Z,-11037.34
2022-10-22T06:22:24.095Z,-11039.59
2022-10-22T06:25:30.596Z,-11063.44
2022-10-22T06:28:39.311Z,-11060.22
2022-10-22T06:31:45.482Z,-11076.50
2022-10-22T06:34:52.095Z,-11079.31
2022-10-22T06:37:58.364Z,-11095.31
2022-10-22T06:41:05.880Z,-11099.94
2022-10-22T06:44:16.431Z,-11113.44
2022-10-22T06:47:22.692Z,-11122.28
2022-10-22T06:50:29.161Z,-11123.41
2022-10-22T06:53:36.468Z,-11116.53
2022-10-22T06:56:43.025Z,-11122.41
2022-10-22T06:59:50.775Z,-11129.59
2022-10-22T07:02:59.168Z,-11141.94
2022-10-22T07:06:10.585Z,-11125.09
2022-10-22T07:12:28.187Z,-11138.56
2022-10-22T07:15:35.596Z,-11136.03
2022-10-22T07:18:42.341Z,-11127.63
2022-10-22T07:21:48.447Z,-11141.81
2022-10-22T07:24:54.752Z,-11165.28
2022-10-22T07:28:01.041Z,-11165.00
2022-10-22T07:31:17.741Z,-11163.31
2022-10-22T07:34:23.940Z,-11169.22
2022-10-22T07:37:30.048Z,-11185.94
2022-10-22T07:40:36.889Z,-11179.31
2022-10-22T07:43:43.268Z,-11191.41
2022-10-22T07:46:50.815Z,-11183.25
2022-10-22T07:49:56.875Z,-11180.72
2022-10-22T07:53:03.376Z,-11206.59
2022-10-22T07:56:09.724Z,-11219.81
2022-10-22T07:59:16.048Z,-11230.50
2022-10-22T08:02:23.977Z,-11227.41
2022-10-22T08:05:30.138Z,-11237.00
2022-10-22T08:08:36.661Z,-11251.63
2022-10-22T08:11:42.857Z,-11238.94
2022-10-22T08:14:49.157Z,-11246.97
2022-10-22T08:17:56.838Z,-11250.06
2022-10-22T08:21:02.802Z,-11258.09
2022-10-22T08:24:09.561Z,-11255.28
2022-10-22T08:27:15.739Z,-11253.03
2022-10-22T08:30:21.884Z,-11271.03
2022-10-22T08:33:29.459Z,-11276.09
2022-10-22T08:36:35.913Z,-11286.66
2022-10-22T08:39:42.236Z,-11280.75
2022-10-22T08:43:36.696Z,-11303.41
2022-10-22T08:46:59.601Z,-11308.19
2022-10-22T08:50:10.916Z,-11300.59
2022-10-22T08:53:19.454Z,-11300.19
2022-10-22T08:56:26.008Z,-11308.19
2022-10-22T08:59:41.200Z,-11320.31
2022-10-22T09:03:02.919Z,-11324.66
2022-10-22T09:06:14.923Z,-11318.47
2022-10-22T09:09:22.595Z,-11324.09
2022-10-22T09:12:29.666Z,-11338.63
2022-10-22T09:15:36.053Z,-11344.53
2022-10-22T09:18:47.688Z,-11351.56
2022-10-22T09:22:02.870Z,-11341.00
2022-10-22T09:25:21.195Z,-11341.56
2022-10-22T09:28:27.499Z,-11341.00
2022-10-22T09:31:34.722Z,-11348.34
2022-10-22T09:34:40.831Z,-11362.69
2022-10-22T09:37:53.195Z,-11383.97
2022-10-22T09:41:03.992Z,-11377.63
2022-10-22T09:44:14.176Z,-11398.06
2022-10-22T09:47:42.921Z,-11419.22
2022-10-22T09:51:01.803Z,-11400.03
2022-10-22T09:54:17.172Z,-11395.69
2022-10-22T09:57:23.988Z,-11405.13
2022-10-22T10:00:31.599Z,-11415.25
2022-10-22T10:03:37.743Z,-11409.06
2022-10-22T10:06:45.942Z,-11415.25
2022-10-22T10:09:55.380Z,-11407.22
2022-10-22T10:13:13.783Z,-11427.53
2022-10-22T10:16:38.195Z,-11421.19
2022-10-22T10:20:01.380Z,-11428.53
2022-10-22T10:23:23.120Z,-11431.63
2022-10-22T10:26:40.512Z,-11423.59
2022-10-22T10:29:55.639Z,-11455.31
2022-10-22T10:33:15.830Z,-11446.13
2022-10-22T10:36:32.574Z,-11471.66
2022-10-22T10:39:50.727Z,-11451.91
2022-10-22T10:43:03.996Z,-11432.31
2022-10-22T10:46:19.114Z,-11470.81
2022-10-22T10:49:27.418Z,-11485.63
2022-10-22T10:52:39.777Z,-11464.19
2022-10-22T10:55:58.404Z,-11487.03
2022-10-22T10:59:24.938Z,-11489.56
2022-10-22T11:03:12.454Z,-11491.41
2022-10-22T11:06:24.557Z,-11495.91
2022-10-22T11:09:37.722Z,-11468.41
2022-10-22T11:12:48.917Z,-11483.38
2022-10-22T11:16:00.788Z,-11484.50
2022-10-22T11:19:22.545Z,-11510.88
2022-10-22T11:22:38.453Z,-11507.06
2022-10-22T11:25:47.261Z,-11490.41
2022-10-22T11:28:56.183Z,-11515.66
2022-10-22T11:32:05.261Z,-11512.00
2022-10-22T11:35:16.716Z,-11528.50
2022-10-22T11:38:27.193Z,-11527.53
2022-10-22T11:41:35.695Z,-11528.94
2022-10-22T11:45:01.024Z,-11540.94
2022-10-22T11:48:18.986Z,-11522.44
2022-10-22T11:51:35.502Z,-11545.31
2022-10-22T11:54:45.380Z,-11535.41
2022-10-22T11:57:51.651Z,-11551.22
2022-10-22T12:00:59.189Z,-11524.13
2022-10-22T12:04:22.683Z,-11545.59
2022-10-22T12:07:35.465Z,-11547.56
2022-10-22T12:10:56.992Z,-11553.47
2022-10-22T12:14:15.901Z,-11551.22
2022-10-22T12:17:24.064Z,-11557.84
2022-10-22T12:20:32.490Z,-11557.72
2022-10-22T12:23:39.017Z,-11562.38
2022-10-22T12:26:46.083Z,-11567.19
2022-10-22T12:29:57.258Z,-11567.59
2022-10-22T12:33:05.444Z,-11565.34
2022-10-22T12:36:19.161Z,-11559.25
2022-10-22T12:39:28.691Z,-11571.84
2022-10-22T12:42:38.215Z,-11564.91
2022-10-22T12:45:46.623Z,-11558.69
2022-10-22T12:48:52.746Z,-11574.38
2022-10-22T12:52:04.458Z,-11571.56
2022-10-22T12:55:16.139Z,-11568.03
2022-10-22T12:58:26.652Z,-11575.78
2022-10-22T13:01:37.685Z,-11585.38
2022-10-22T13:04:44.207Z,-11587.94
2022-10-22T13:07:53.636Z,-11577.75
2022-10-22T13:11:09.382Z,-11569.84
2022-10-22T13:14:21.529Z,-11559.53
2022-10-22T13:17:41.218Z,-11568.44
2022-10-22T13:20:56.705Z,-11570.56
2022-10-22T13:24:20.520Z,-11579.16
2022-10-22T13:27:27.565Z,-11561.81
2022-10-22T13:30:35.554Z,-11580.56
2022-10-22T13:33:44.545Z,-11566.31
2022-10-22T13:36:51.033Z,-11583.69
2022-10-22T13:39:58.840Z,-11591.44
2022-10-22T13:43:04.824Z,-11597.53
2022-10-22T13:46:11.754Z,-11595.41
2022-10-22T13:49:20.992Z,-11569.56
2022-10-22T13:52:34.651Z,-11544.88
2022-10-22T13:55:42.210Z,-11508.34
2022-10-22T13:58:49.489Z,-11507.22
2022-10-22T14:01:57.087Z,-11505.78
2022-10-22T14:05:04.574Z,-11505.22
2022-10-22T14:08:13.922Z,-11520.47
2022-10-22T14:11:21.817Z,-11518.22
2022-10-22T14:14:28.238Z,-11524.97
2022-10-22T14:17:34.854Z,-11509.31
2022-10-22T14:20:43.264Z,-11495.63
2022-10-22T14:23:51.287Z,-11482.38
2022-10-22T14:26:59.127Z,-11487.75
2022-10-22T14:30:05.951Z,-11475.91
2022-10-22T14:33:16.354Z,-11472.78
2022-10-22T14:36:22.611Z,-11465.16
2022-10-22T14:39:28.973Z,-11457.28
2022-10-22T14:42:41.746Z,-11461.09
2022-10-22T14:45:48.340Z,-11451.34
2022-10-22T14:48:54.339Z,-11447.53
2022-10-22T14:52:00.796Z,-11446.28
2022-10-22T14:55:08.507Z,-11442.34
2022-10-22T14:58:16.251Z,-11435.13
2022-10-22T15:01:22.538Z,-11424.28
2022-10-22T15:04:30.585Z,-11422.44
2022-10-22T15:07:37.199Z,-11415.12
2022-10-22T15:10:43.967Z,-11416.53
2022-10-22T15:13:51.458Z,-11414.84
2022-10-22T15:16:57.767Z,-11401.88
2022-10-22T15:20:05.572Z,-11399.34
2022-10-22T15:23:11.919Z,-11392.16
2022-10-22T15:26:18.989Z,-11384.53
2022-10-22T15:29:26.580Z,-11383.41
2022-10-22T15:32:33.722Z,-11379.19
2022-10-22T15:35:40.078Z,-11371.44
2022-10-22T15:38:46.418Z,-11369.47
2022-10-22T15:41:53.567Z,-11363.97
2022-10-22T15:45:02.325Z,-11342.69
2022-10-22T15:48:09.683Z,-11345.66
2022-10-22T15:51:19.892Z,-11348.47
2022-10-22T15:54:28.789Z,-11340.59
2022-10-22T15:57:34.912Z,-11342.56
2022-10-22T16:00:42.787Z,-11335.38
2022-10-22T16:03:52.527Z,-11322.28
2022-10-22T16:06:59.249Z,-11319.75
2022-10-22T16:10:07.743Z,-11317.78
2022-10-22T16:13:14.045Z,-11305.38
2022-10-22T16:16:22.450Z,-11301.16
2022-10-22T16:19:28.959Z,-11297.50
2022-10-22T16:22:35.482Z,-11304.13
2022-10-22T16:25:42.591Z,-11304.69
2022-10-22T16:28:49.787Z,-11301.44
2022-10-22T16:31:57.324Z,-11294.13
2022-10-22T16:35:03.427Z,-11289.63
2022-10-22T16:38:10.972Z,-11285.97
2022-10-22T16:41:18.762Z,-11270.19
2022-10-22T16:44:25.365Z,-11266.41
2022-10-22T16:47:33.115Z,-11274.69
2022-10-22T16:50:41.392Z,-11267.94
2022-10-22T16:53:47.989Z,-11269.06
2022-10-22T16:56:54.011Z,-11273.28
2022-10-22T17:00:00.342Z,-11264.84
2022-10-22T17:03:08.204Z,-11265.84
2022-10-22T17:06:15.271Z,-11260.34
2022-10-22T17:09:21.580Z,-11256.41
2022-10-22T17:12:28.377Z,-11254.16
2022-10-22T17:15:34.568Z,-11261.75
2022-10-22T17:21:55.916Z,-11247.41
2022-10-22T17:25:13.077Z,-11244.59
2022-10-22T17:28:19.307Z,-11239.50
2022-10-22T17:31:27.773Z,-11236.56
2022-10-22T17:34:35.023Z,-11233.88
2022-10-22T17:37:41.199Z,-11237.56
2022-10-22T17:40:47.718Z,-11235.59
2022-10-22T17:43:54.393Z,-11231.63
2022-10-22T17:47:01.228Z,-11235.59
2022-10-22T17:50:10.447Z,-11248.38
2022-10-22T17:53:16.743Z,-11245.28
2022-10-22T17:56:24.873Z,-11238.09
2022-10-22T17:59:31.266Z,-11228.97
2022-10-22T18:02:38.001Z,-11202.94
2022-10-22T18:05:45.995Z,-11213.34
2022-10-22T18:12:03.017Z,-11213.22
2022-10-22T18:15:10.191Z,-11210.41
2022-10-22T18:18:16.679Z,-11202.09
2022-10-22T18:21:26.575Z,-11214.34
2022-10-22T18:24:32.767Z,-11212.22
2022-10-22T18:27:39.024Z,-11208.72
2022-10-22T18:30:45.783Z,-11207.44
2022-10-22T18:37:04.885Z,-11207.44
2022-10-22T18:40:14.573Z,-11209.56
2022-10-22T18:43:20.693Z,-11204.06
2022-10-22T18:46:28.294Z,-11205.47
2022-10-22T18:49:34.440Z,-11204.78
2022-10-22T18:52:42.296Z,-11204.06
2022-10-22T18:55:48.553Z,-11197.19
2022-10-22T18:58:54.906Z,-11191.13
2022-10-22T19:02:01.424Z,-11185.38
2022-10-22T19:05:08.581Z,-11194.09
2022-10-22T19:08:17.442Z,-11191.97
2022-10-22T19:11:24.542Z,-11181.00
2022-10-22T19:14:31.034Z,-11188.19
2022-10-22T19:17:37.387Z,-11186.06
2022-10-22T19:20:45.248Z,-11182.41
2022-10-22T19:23:52.925Z,-11185.66
2022-10-22T19:26:59.124Z,-11179.19
2022-10-22T19:30:05.998Z,-11185.66
2022-10-22T19:33:12.283Z,-11177.63
2022-10-22T19:36:20.101Z,-11176.09
2022-10-22T19:39:27.864Z,-11179.75
2022-10-22T19:42:34.349Z,-11181.84
2022-10-22T19:45:41.686Z,-11182.97
2022-10-22T19:48:48.834Z,-11180.03
2022-10-22T19:51:55.376Z,-11178.75
2022-10-22T19:55:03.337Z,-11163.03
2022-10-22T19:58:09.628Z,-11160.22
2022-10-22T20:01:18.276Z,-11167.81
2022-10-22T20:04:28.107Z,-11173.00
2022-10-22T20:07:34.847Z,-11167.38
2022-10-22T20:10:42.352Z,-11172.31
2022-10-22T20:13:51.396Z,-11166.13
2022-10-22T20:16:58.846Z,-11159.22
2022-10-22T20:20:05.948Z,-11159.78
2022-10-22T20:23:12.144Z,-11167.09
2022-10-22T20:26:20.280Z,-11164.44
2022-10-22T20:29:26.545Z,-11158.81
2022-10-22T20:32:33.384Z,-11153.47
2022-10-22T20:35:40.306Z,-11144.19
2022-10-22T20:38:48.359Z,-11153.47
2022-10-22T20:41:55.830Z,-11159.50
2022-10-22T20:45:01.807Z,-11170.47
2022-10-22T20:48:08.666Z,-11162.47
2022-10-22T20:51:15.393Z,-11149.94
2022-10-22T20:54:21.399Z,-11148.97
2022-10-22T20:57:29.606Z,-11140.97
2022-10-22T21:00:36.264Z,-11148.13
2022-10-22T21:03:42.659Z,-11154.72
2022-10-22T21:06:50.353Z,-11145.88
2022-10-22T21:09:56.392Z,-11140.53
2022-10-22T21:13:04.031Z,-11143.62
2022-10-22T21:16:11.600Z,-11142.78
2022-10-22T21:19:18.989Z,-11149.53
2022-10-22T21:22:24.907Z,-11137.44
2022-10-22T21:25:30.967Z,-11141.81
2022-10-22T21:28:39.242Z,-11129.59
2022-10-22T21:31:45.384Z,-11127.06
2022-10-22T21:34:51.638Z,-11122.97
2022-10-22T21:37:57.817Z,-11128.31
2022-10-22T21:41:06.238Z,-11124.94
2022-10-22T21:44:14.012Z,-11120.59
2022-10-22T21:47:20.689Z,-11128.19
2022-10-22T21:50:26.960Z,-11140.81
2022-10-22T21:53:33.385Z,-11139.97
2022-10-22T21:56:40.405Z,-11141.38
2022-10-22T21:59:48.098Z,-11138.16
2022-10-22T22:02:54.465Z,-11123.41
2022-10-22T22:06:01.695Z,-11109.78
2022-10-22T22:09:08.148Z,-11119.19
2022-10-22T22:12:14.159Z,-11114.69
2022-10-22T22:15:21.863Z,-11118.06
2022-10-22T22:18:27.898Z,-11128.75
2022-10-22T22:21:35.169Z,-11139.69
2022-10-22T22:24:41.264Z,-11125.94
2022-10-22T22:27:47.712Z,-11130.41
2022-10-22T22:30:55.273Z,-11118.63
2022-10-22T22:34:02.610Z,-11128.19
2022-10-22T22:37:09.234Z,-11130.00
2022-10-22T22:40:15.566Z,-11140.41
2022-10-22T22:43:22.075Z,-11131.41
2022-10-22T22:46:30.274Z,-11131.41
2022-10-22T22:49:37.101Z,-11103.47
2022-10-22T22:52:43.378Z,-11120.44
2022-10-22T22:55:50.491Z,-11119.31
2022-10-22T22:58:56.882Z,-11121.72
2022-10-22T23:02:04.845Z,-11125.09
2022-10-22T23:05:12.180Z,-11120.88
2022-10-22T23:08:18.940Z,-11126.34
2022-10-22T23:11:26.391Z,-11116.38
2022-10-22T23:14:33.090Z,-11125.50
2022-10-22T23:17:40.596Z,-11112.44
2022-10-22T23:20:46.798Z,-11125.38
2022-10-22T23:23:55.042Z,-11134.50
2022-10-22T23:27:03.995Z,-11132.38
2022-10-22T23:30:11.456Z,-11117.22
2022-10-22T23:33:19.497Z,-11112.44
2022-10-22T23:36:25.661Z,-11122.00
2022-10-22T23:39:32.030Z,-11132.66
2022-10-22T23:45:45.478Z,-11125.66
2022-10-22T23:48:53.896Z,-11134.91
2022-10-22T23:52:00.184Z,-11137.03
2022-10-22T23:55:07.480Z,-11136.03
2022-10-22T23:58:14.335Z,-11114.84
